sensor_id;sensor_type;location;lat;lon;timestamp;temperature;humidity
10472;DHT22;5283;48.876;8.962;2023-03-01T00:01:06;-6.20;99.90
10472;DHT22;5283;48.876;8.962;2023-03-01T00:03:34;-6.20;99.90
10472;DHT22;5283;48.876;8.962;2023-03-01T00:06:02;-6.20;99.90
10472;DHT22;5283;48.876;8.962;2023-03-01T00:08:29;-6.30;99.90
10472;DHT22;5283;48.876;8.962;2023-03-01T00:11:17;-6.30;99.90
10472;DHT22;5283;48.876;8.962;2023-03-01T00:13:46;-6.20;99.90
10472;DHT22;5283;48.876;8.962;2023-03-01T00:16:16;-6.20;99.90
10472;DHT22;5283;48.876;8.962;2023-03-01T00:18:43;-6.20;99.90
10472;DHT22;5283;48.876;8.962;2023-03-01T00:21:10;-6.30;99.90
10472;DHT22;5283;48.876;8.962;2023-03-01T00:23:38;-6.30;99.90
10472;DHT22;5283;48.876;8.962;2023-03-01T00:26:10;-6.30;99.90
10472;DHT22;5283;48.876;8.962;2023-03-01T00:28:37;-6.20;99.90
10472;DHT22;5283;48.876;8.962;2023-03-01T00:31:09;-6.20;99.90
10472;DHT22;5283;48.876;8.962;2023-03-01T00:33:36;-6.30;99.90
10472;DHT22;5283;48.876;8.962;2023-03-01T00:36:03;-6.20;99.90
10472;DHT22;5283;48.876;8.962;2023-03-01T00:38:30;-6.10;99.90
10472;DHT22;5283;48.876;8.962;2023-03-01T00:41:03;-6.20;99.90
10472;DHT22;5283;48.876;8.962;2023-03-01T00:43:31;-6.30;99.90
10472;DHT22;5283;48.876;8.962;2023-03-01T00:46:15;-6.30;99.90
10472;DHT22;5283;48.876;8.962;2023-03-01T00:48:42;-6.40;99.90
10472;DHT22;5283;48.876;8.962;2023-03-01T00:51:14;-6.40;99.90
10472;DHT22;5283;48.876;8.962;2023-03-01T00:53:42;-6.30;99.90
10472;DHT22;5283;48.876;8.962;2023-03-01T00:56:10;-6.40;99.90
10472;DHT22;5283;48.876;8.962;2023-03-01T00:58:37;-6.50;99.90
10472;DHT22;5283;48.876;8.962;2023-03-01T01:01:10;-6.40;99.90
10472;DHT22;5283;48.876;8.962;2023-03-01T01:03:49;-6.40;99.90
10472;DHT22;5283;48.876;8.962;2023-03-01T01:06:19;-6.40;99.90
10472;DHT22;5283;48.876;8.962;2023-03-01T01:08:46;-6.40;99.90
10472;DHT22;5283;48.876;8.962;2023-03-01T01:11:14;-6.40;99.90
10472;DHT22;5283;48.876;8.962;2023-03-01T01:13:41;-6.40;99.90
10472;DHT22;5283;48.876;8.962;2023-03-01T01:16:08;-6.50;99.90
10472;DHT22;5283;48.876;8.962;2023-03-01T01:18:35;-6.60;99.90
10472;DHT22;5283;48.876;8.962;2023-03-01T01:21:08;-6.70;99.90
10472;DHT22;5283;48.876;8.962;2023-03-01T01:23:36;-6.70;99.90
10472;DHT22;5283;48.876;8.962;2023-03-01T01:26:09;-6.70;99.90
10472;DHT22;5283;48.876;8.962;2023-03-01T01:28:36;-6.60;99.90
10472;DHT22;5283;48.876;8.962;2023-03-01T01:31:03;-6.50;99.90
10472;DHT22;5283;48.876;8.962;2023-03-01T01:33:31;-6.50;99.90
10472;DHT22;5283;48.876;8.962;2023-03-01T01:35:58;-6.60;99.90
10472;DHT22;5283;48.876;8.962;2023-03-01T01:38:25;-6.70;99.90
10472;DHT22;5283;48.876;8.962;2023-03-01T01:40:52;-6.80;99.90
10472;DHT22;5283;48.876;8.962;2023-03-01T01:43:25;-6.80;99.90
10472;DHT22;5283;48.876;8.962;2023-03-01T01:46:01;-6.90;99.90
10472;DHT22;5283;48.876;8.962;2023-03-01T01:48:36;-6.70;99.90
10472;DHT22;5283;48.876;8.962;2023-03-01T01:51:10;-6.70;99.90
10472;DHT22;5283;48.876;8.962;2023-03-01T01:53:38;-6.70;99.90
10472;DHT22;5283;48.876;8.962;2023-03-01T01:56:08;-6.80;99.90
10472;DHT22;5283;48.876;8.962;2023-03-01T01:58:37;-6.70;99.90
10472;DHT22;5283;48.876;8.962;2023-03-01T02:01:05;-6.70;99.90
10472;DHT22;5283;48.876;8.962;2023-03-01T02:03:33;-6.50;99.90
10472;DHT22;5283;48.876;8.962;2023-03-01T02:06:07;-6.50;99.90
10472;DHT22;5283;48.876;8.962;2023-03-01T02:08:38;-6.50;99.90
10472;DHT22;5283;48.876;8.962;2023-03-01T02:11:08;-6.50;99.90
10472;DHT22;5283;48.876;8.962;2023-03-01T02:13:37;-6.40;99.90
10472;DHT22;5283;48.876;8.962;2023-03-01T02:16:05;-6.40;99.90
10472;DHT22;5283;48.876;8.962;2023-03-01T02:18:34;-6.40;99.90
10472;DHT22;5283;48.876;8.962;2023-03-01T02:21:13;-6.40;99.90
10472;DHT22;5283;48.876;8.962;2023-03-01T02:23:44;-6.50;99.90
10472;DHT22;5283;48.876;8.962;2023-03-01T02:28:44;-6.60;99.90
10472;DHT22;5283;48.876;8.962;2023-03-01T02:31:16;-6.80;99.90
10472;DHT22;5283;48.876;8.962;2023-03-01T02:34:02;-6.80;99.90
10472;DHT22;5283;48.876;8.962;2023-03-01T02:36:43;-6.90;99.90
10472;DHT22;5283;48.876;8.962;2023-03-01T02:39:18;-6.90;99.90
10472;DHT22;5283;48.876;8.962;2023-03-01T02:41:50;-7.00;99.90
10472;DHT22;5283;48.876;8.962;2023-03-01T02:44:17;-7.00;99.90
10472;DHT22;5283;48.876;8.962;2023-03-01T02:46:50;-7.00;99.90
10472;DHT22;5283;48.876;8.962;2023-03-01T02:57:14;-6.40;99.90
10472;DHT22;5283;48.876;8.962;2023-03-01T02:59:42;-6.40;99.90
10472;DHT22;5283;48.876;8.962;2023-03-01T03:02:27;-6.30;99.90
10472;DHT22;5283;48.876;8.962;2023-03-01T03:05:08;-6.10;99.90
10472;DHT22;5283;48.876;8.962;2023-03-01T03:07:37;-5.90;99.90
10472;DHT22;5283;48.876;8.962;2023-03-01T03:10:06;-5.70;99.90
10472;DHT22;5283;48.876;8.962;2023-03-01T03:12:33;-5.60;99.90
10472;DHT22;5283;48.876;8.962;2023-03-01T03:15:00;-5.50;99.90
10472;DHT22;5283;48.876;8.962;2023-03-01T03:17:26;-5.40;99.90
10472;DHT22;5283;48.876;8.962;2023-03-01T03:19:53;-5.30;99.90
10472;DHT22;5283;48.876;8.962;2023-03-01T03:22:20;-5.20;99.90
10472;DHT22;5283;48.876;8.962;2023-03-01T03:24:46;-5.10;99.90
10472;DHT22;5283;48.876;8.962;2023-03-01T03:27:13;-5.00;99.90
10472;DHT22;5283;48.876;8.962;2023-03-01T03:29:40;-4.90;99.90
10472;DHT22;5283;48.876;8.962;2023-03-01T03:32:07;-4.90;99.90
10472;DHT22;5283;48.876;8.962;2023-03-01T03:34:33;-4.90;99.90
10472;DHT22;5283;48.876;8.962;2023-03-01T03:37:00;-4.80;99.90
10472;DHT22;5283;48.876;8.962;2023-03-01T03:39:27;-4.70;99.90
10472;DHT22;5283;48.876;8.962;2023-03-01T03:41:55;-4.60;99.90
10472;DHT22;5283;48.876;8.962;2023-03-01T03:44:22;-4.60;99.90
10472;DHT22;5283;48.876;8.962;2023-03-01T03:46:48;-4.50;99.90
10472;DHT22;5283;48.876;8.962;2023-03-01T03:49:15;-4.50;99.90
10472;DHT22;5283;48.876;8.962;2023-03-01T03:51:42;-4.40;99.90
10472;DHT22;5283;48.876;8.962;2023-03-01T03:54:08;-4.40;99.90
10472;DHT22;5283;48.876;8.962;2023-03-01T03:56:35;-4.30;99.90
10472;DHT22;5283;48.876;8.962;2023-03-01T03:59:02;-4.30;99.90
10472;DHT22;5283;48.876;8.962;2023-03-01T04:01:29;-4.30;99.90
10472;DHT22;5283;48.876;8.962;2023-03-01T04:03:56;-4.30;99.90
10472;DHT22;5283;48.876;8.962;2023-03-01T04:06:22;-4.30;99.90
10472;DHT22;5283;48.876;8.962;2023-03-01T04:08:49;-4.30;99.90
10472;DHT22;5283;48.876;8.962;2023-03-01T04:11:17;-4.20;99.90
10472;DHT22;5283;48.876;8.962;2023-03-01T04:13:56;-4.20;99.90
10472;DHT22;5283;48.876;8.962;2023-03-01T04:16:23;-4.20;99.90
10472;DHT22;5283;48.876;8.962;2023-03-01T04:18:50;-4.20;99.90
10472;DHT22;5283;48.876;8.962;2023-03-01T04:21:20;-4.20;99.90
10472;DHT22;5283;48.876;8.962;2023-03-01T04:23:46;-4.20;99.90
10472;DHT22;5283;48.876;8.962;2023-03-01T04:26:13;-4.10;99.90
10472;DHT22;5283;48.876;8.962;2023-03-01T04:28:41;-4.10;99.90
10472;DHT22;5283;48.876;8.962;2023-03-01T04:31:14;-4.00;99.90
10472;DHT22;5283;48.876;8.962;2023-03-01T04:36:15;-3.90;99.90
10472;DHT22;5283;48.876;8.962;2023-03-01T04:38:42;-3.80;99.90
10472;DHT22;5283;48.876;8.962;2023-03-01T04:41:18;-3.70;99.90
10472;DHT22;5283;48.876;8.962;2023-03-01T04:43:45;-3.70;99.90
10472;DHT22;5283;48.876;8.962;2023-03-01T04:46:14;-3.70;99.90
10472;DHT22;5283;48.876;8.962;2023-03-01T04:48:43;-3.70;99.90
10472;DHT22;5283;48.876;8.962;2023-03-01T04:51:10;-3.60;99.90
10472;DHT22;5283;48.876;8.962;2023-03-01T04:53:40;-3.60;99.90
10472;DHT22;5283;48.876;8.962;2023-03-01T04:56:08;-3.60;99.90
10472;DHT22;5283;48.876;8.962;2023-03-01T04:58:35;-3.60;99.90
10472;DHT22;5283;48.876;8.962;2023-03-01T05:01:01;-3.50;99.90
10472;DHT22;5283;48.876;8.962;2023-03-01T05:03:43;-3.50;99.90
10472;DHT22;5283;48.876;8.962;2023-03-01T05:06:10;-3.60;99.90
10472;DHT22;5283;48.876;8.962;2023-03-01T05:08:41;-3.60;99.90
10472;DHT22;5283;48.876;8.962;2023-03-01T05:11:08;-3.60;99.90
10472;DHT22;5283;48.876;8.962;2023-03-01T05:13:37;-3.60;99.90
10472;DHT22;5283;48.876;8.962;2023-03-01T05:16:05;-3.60;99.90
10472;DHT22;5283;48.876;8.962;2023-03-01T05:18:33;-3.70;99.90
10472;DHT22;5283;48.876;8.962;2023-03-01T05:21:08;-3.70;99.90
10472;DHT22;5283;48.876;8.962;2023-03-01T05:23:36;-3.60;99.90
10472;DHT22;5283;48.876;8.962;2023-03-01T05:26:05;-3.60;99.90
10472;DHT22;5283;48.876;8.962;2023-03-01T05:28:35;-3.50;99.90
10472;DHT22;5283;48.876;8.962;2023-03-01T05:31:02;-3.50;99.90
10472;DHT22;5283;48.876;8.962;2023-03-01T05:33:28;-3.50;99.90
10472;DHT22;5283;48.876;8.962;2023-03-01T05:35:59;-3.50;99.90
10472;DHT22;5283;48.876;8.962;2023-03-01T05:38:26;-3.50;99.90
10472;DHT22;5283;48.876;8.962;2023-03-01T05:40:53;-3.50;99.90
10472;DHT22;5283;48.876;8.962;2023-03-01T05:43:20;-3.60;99.90
10472;DHT22;5283;48.876;8.962;2023-03-01T05:45:47;-3.60;99.90
10472;DHT22;5283;48.876;8.962;2023-03-01T05:48:14;-3.60;99.90
10472;DHT22;5283;48.876;8.962;2023-03-01T05:50:44;-3.60;99.90
10472;DHT22;5283;48.876;8.962;2023-03-01T05:53:14;-3.60;99.90
10472;DHT22;5283;48.876;8.962;2023-03-01T05:55:42;-3.60;99.90
10472;DHT22;5283;48.876;8.962;2023-03-01T05:58:12;-3.60;99.90
10472;DHT22;5283;48.876;8.962;2023-03-01T06:00:41;-3.70;99.90
10472;DHT22;5283;48.876;8.962;2023-03-01T06:03:10;-3.80;99.90
10472;DHT22;5283;48.876;8.962;2023-03-01T06:05:38;-3.90;99.90
10472;DHT22;5283;48.876;8.962;2023-03-01T06:08:06;-4.00;99.90
10472;DHT22;5283;48.876;8.962;2023-03-01T06:10:33;-4.00;99.90
10472;DHT22;5283;48.876;8.962;2023-03-01T06:13:00;-4.00;99.90
10472;DHT22;5283;48.876;8.962;2023-03-01T06:15:26;-4.10;99.90
10472;DHT22;5283;48.876;8.962;2023-03-01T06:17:54;-4.00;99.90
10472;DHT22;5283;48.876;8.962;2023-03-01T06:20:27;-3.90;99.90
10472;DHT22;5283;48.876;8.962;2023-03-01T06:22:54;-3.80;99.90
10472;DHT22;5283;48.876;8.962;2023-03-01T06:25:24;-3.70;99.90
10472;DHT22;5283;48.876;8.962;2023-03-01T06:27:51;-3.70;99.90
10472;DHT22;5283;48.876;8.962;2023-03-01T06:30:22;-3.50;99.90
10472;DHT22;5283;48.876;8.962;2023-03-01T06:32:49;-3.40;99.90
10472;DHT22;5283;48.876;8.962;2023-03-01T06:35:17;-3.30;99.90
10472;DHT22;5283;48.876;8.962;2023-03-01T06:37:46;-3.20;99.90
10472;DHT22;5283;48.876;8.962;2023-03-01T06:40:14;-3.10;99.90
10472;DHT22;5283;48.876;8.962;2023-03-01T06:42:47;-3.10;99.90
10472;DHT22;5283;48.876;8.962;2023-03-01T06:45:14;-3.00;99.90
10472;DHT22;5283;48.876;8.962;2023-03-01T06:47:41;-2.90;99.90
10472;DHT22;5283;48.876;8.962;2023-03-01T06:50:08;-2.70;99.90
10472;DHT22;5283;48.876;8.962;2023-03-01T06:52:35;-2.60;99.90
10472;DHT22;5283;48.876;8.962;2023-03-01T06:55:02;-2.50;99.90
10472;DHT22;5283;48.876;8.962;2023-03-01T06:57:29;-2.50;99.90
10472;DHT22;5283;48.876;8.962;2023-03-01T06:59:56;-2.40;99.90
10472;DHT22;5283;48.876;8.962;2023-03-01T07:02:23;-2.30;99.90
10472;DHT22;5283;48.876;8.962;2023-03-01T07:04:50;-2.40;99.90
10472;DHT22;5283;48.876;8.962;2023-03-01T07:07:17;-2.40;99.90
10472;DHT22;5283;48.876;8.962;2023-03-01T07:09:45;-2.40;99.90
10472;DHT22;5283;48.876;8.962;2023-03-01T07:12:12;-2.40;99.90
10472;DHT22;5283;48.876;8.962;2023-03-01T07:14:39;-2.40;99.90
10472;DHT22;5283;48.876;8.962;2023-03-01T07:17:06;-2.40;99.90
10472;DHT22;5283;48.876;8.962;2023-03-01T07:19:33;-2.50;99.90
10472;DHT22;5283;48.876;8.962;2023-03-01T07:21:59;-2.50;99.90
10472;DHT22;5283;48.876;8.962;2023-03-01T07:24:26;-2.40;99.90
10472;DHT22;5283;48.876;8.962;2023-03-01T07:26:53;-2.40;99.90
10472;DHT22;5283;48.876;8.962;2023-03-01T07:29:20;-2.40;99.90
10472;DHT22;5283;48.876;8.962;2023-03-01T07:31:46;-2.40;99.90
10472;DHT22;5283;48.876;8.962;2023-03-01T07:34:13;-2.30;99.90
10472;DHT22;5283;48.876;8.962;2023-03-01T07:36:40;-2.30;99.90
10472;DHT22;5283;48.876;8.962;2023-03-01T07:39:10;-2.20;99.90
10472;DHT22;5283;48.876;8.962;2023-03-01T07:41:37;-2.10;99.90
10472;DHT22;5283;48.876;8.962;2023-03-01T07:44:05;-2.00;99.90
10472;DHT22;5283;48.876;8.962;2023-03-01T07:46:32;-1.90;99.90
10472;DHT22;5283;48.876;8.962;2023-03-01T07:49:00;-1.90;99.90
10472;DHT22;5283;48.876;8.962;2023-03-01T07:51:26;-1.80;99.90
10472;DHT22;5283;48.876;8.962;2023-03-01T07:53:53;-1.80;99.90
10472;DHT22;5283;48.876;8.962;2023-03-01T07:56:20;-1.80;99.90
10472;DHT22;5283;48.876;8.962;2023-03-01T07:58:48;-1.70;99.90
10472;DHT22;5283;48.876;8.962;2023-03-01T08:01:18;-1.70;99.90
10472;DHT22;5283;48.876;8.962;2023-03-01T08:03:45;-1.60;99.90
10472;DHT22;5283;48.876;8.962;2023-03-01T08:06:14;-1.60;99.90
10472;DHT22;5283;48.876;8.962;2023-03-01T08:08:41;-1.50;99.90
10472;DHT22;5283;48.876;8.962;2023-03-01T08:11:11;-1.40;99.90
10472;DHT22;5283;48.876;8.962;2023-03-01T08:13:38;-1.40;99.90
10472;DHT22;5283;48.876;8.962;2023-03-01T08:16:07;-1.40;99.90
10472;DHT22;5283;48.876;8.962;2023-03-01T08:18:35;-1.30;99.90
10472;DHT22;5283;48.876;8.962;2023-03-01T08:21:04;-1.10;99.90
10472;DHT22;5283;48.876;8.962;2023-03-01T08:23:31;-1.00;99.90
10472;DHT22;5283;48.876;8.962;2023-03-01T08:26:19;-0.80;99.90
10472;DHT22;5283;48.876;8.962;2023-03-01T08:28:47;-0.70;99.90
10472;DHT22;5283;48.876;8.962;2023-03-01T08:31:15;-0.60;99.90
10472;DHT22;5283;48.876;8.962;2023-03-01T08:33:43;-0.50;99.90
10472;DHT22;5283;48.876;8.962;2023-03-01T08:36:10;-0.30;99.90
10472;DHT22;5283;48.876;8.962;2023-03-01T08:38:37;-0.20;99.90
10472;DHT22;5283;48.876;8.962;2023-03-01T08:41:04;0.00;99.90
10472;DHT22;5283;48.876;8.962;2023-03-01T08:43:30;0.00;99.90
10472;DHT22;5283;48.876;8.962;2023-03-01T08:45:57;0.10;99.90
10472;DHT22;5283;48.876;8.962;2023-03-01T08:48:24;0.20;99.90
10472;DHT22;5283;48.876;8.962;2023-03-01T08:50:51;0.30;99.90
10472;DHT22;5283;48.876;8.962;2023-03-01T08:53:18;0.30;99.90
10472;DHT22;5283;48.876;8.962;2023-03-01T08:55:44;0.40;99.90
10472;DHT22;5283;48.876;8.962;2023-03-01T08:58:11;0.30;99.90
10472;DHT22;5283;48.876;8.962;2023-03-01T09:00:38;0.20;99.90
10472;DHT22;5283;48.876;8.962;2023-03-01T09:03:06;0.30;99.90
10472;DHT22;5283;48.876;8.962;2023-03-01T09:05:34;0.40;99.90
10472;DHT22;5283;48.876;8.962;2023-03-01T09:08:01;0.40;99.90
10472;DHT22;5283;48.876;8.962;2023-03-01T09:10:27;0.50;99.90
10472;DHT22;5283;48.876;8.962;2023-03-01T09:12:54;0.60;99.90
10472;DHT22;5283;48.876;8.962;2023-03-01T09:15:21;0.70;99.90
10472;DHT22;5283;48.876;8.962;2023-03-01T09:17:48;0.90;99.90
10472;DHT22;5283;48.876;8.962;2023-03-01T09:20:15;1.10;99.90
10472;DHT22;5283;48.876;8.962;2023-03-01T09:22:42;1.20;99.90
10472;DHT22;5283;48.876;8.962;2023-03-01T09:25:09;1.30;99.90
10472;DHT22;5283;48.876;8.962;2023-03-01T09:27:36;1.40;99.90
10472;DHT22;5283;48.876;8.962;2023-03-01T09:30:03;1.50;99.90
10472;DHT22;5283;48.876;8.962;2023-03-01T09:32:31;1.70;99.90
10472;DHT22;5283;48.876;8.962;2023-03-01T09:34:58;1.80;99.90
10472;DHT22;5283;48.876;8.962;2023-03-01T09:37:31;1.90;99.90
10472;DHT22;5283;48.876;8.962;2023-03-01T09:39:58;2.00;99.90
10472;DHT22;5283;48.876;8.962;2023-03-01T09:42:26;2.00;99.90
10472;DHT22;5283;48.876;8.962;2023-03-01T09:45:23;2.10;99.90
10472;DHT22;5283;48.876;8.962;2023-03-01T09:47:52;2.20;99.90
10472;DHT22;5283;48.876;8.962;2023-03-01T09:50:21;2.20;99.90
10472;DHT22;5283;48.876;8.962;2023-03-01T09:53:06;2.30;99.90
10472;DHT22;5283;48.876;8.962;2023-03-01T09:55:54;2.30;99.90
10472;DHT22;5283;48.876;8.962;2023-03-01T09:58:29;2.30;99.90
10472;DHT22;5283;48.876;8.962;2023-03-01T10:01:00;2.40;99.90
10472;DHT22;5283;48.876;8.962;2023-03-01T10:03:34;2.40;99.90
10472;DHT22;5283;48.876;8.962;2023-03-01T10:06:15;2.50;99.90
10472;DHT22;5283;48.876;8.962;2023-03-01T10:09:10;2.60;99.90
10472;DHT22;5283;48.876;8.962;2023-03-01T10:11:50;2.70;99.90
10472;DHT22;5283;48.876;8.962;2023-03-01T10:17:03;2.60;99.90
10472;DHT22;5283;48.876;8.962;2023-03-01T10:19:45;2.60;99.90
10472;DHT22;5283;48.876;8.962;2023-03-01T10:22:27;2.70;99.90
10472;DHT22;5283;48.876;8.962;2023-03-01T10:25:00;2.70;99.90
10472;DHT22;5283;48.876;8.962;2023-03-01T10:28:00;2.70;99.90
10472;DHT22;5283;48.876;8.962;2023-03-01T10:30:39;2.80;99.90
10472;DHT22;5283;48.876;8.962;2023-03-01T10:33:19;2.80;99.90
10472;DHT22;5283;48.876;8.962;2023-03-01T10:35:47;2.90;99.90
10472;DHT22;5283;48.876;8.962;2023-03-01T10:38:16;2.90;99.90
10472;DHT22;5283;48.876;8.962;2023-03-01T10:40:58;2.90;99.90
10472;DHT22;5283;48.876;8.962;2023-03-01T10:43:28;3.00;99.90
10472;DHT22;5283;48.876;8.962;2023-03-01T10:45:58;3.20;99.90
10472;DHT22;5283;48.876;8.962;2023-03-01T10:48:26;3.30;99.90
10472;DHT22;5283;48.876;8.962;2023-03-01T10:53:38;3.40;99.90
10472;DHT22;5283;48.876;8.962;2023-03-01T10:56:08;3.50;99.90
10472;DHT22;5283;48.876;8.962;2023-03-01T10:58:37;3.60;99.90
10472;DHT22;5283;48.876;8.962;2023-03-01T11:03:44;3.60;99.90
10472;DHT22;5283;48.876;8.962;2023-03-01T11:08:48;3.90;99.90
10472;DHT22;5283;48.876;8.962;2023-03-01T11:13:54;4.00;99.90
10472;DHT22;5283;48.876;8.962;2023-03-01T11:16:36;4.00;99.90
10472;DHT22;5283;48.876;8.962;2023-03-01T11:24:13;4.20;99.90
10472;DHT22;5283;48.876;8.962;2023-03-01T11:26:46;4.20;99.90
10472;DHT22;5283;48.876;8.962;2023-03-01T11:29:35;4.30;99.90
10472;DHT22;5283;48.876;8.962;2023-03-01T11:32:14;4.40;99.90
10472;DHT22;5283;48.876;8.962;2023-03-01T11:34:50;4.40;99.90
10472;DHT22;5283;48.876;8.962;2023-03-01T11:37:26;4.50;99.90
10472;DHT22;5283;48.876;8.962;2023-03-01T11:40:05;4.60;99.90
10472;DHT22;5283;48.876;8.962;2023-03-01T11:42:48;4.70;99.90
10472;DHT22;5283;48.876;8.962;2023-03-01T11:45:16;4.70;99.90
10472;DHT22;5283;48.876;8.962;2023-03-01T11:48:00;4.70;99.90
10472;DHT22;5283;48.876;8.962;2023-03-01T11:50:35;4.70;99.90
10472;DHT22;5283;48.876;8.962;2023-03-01T11:56:02;4.90;99.90
10472;DHT22;5283;48.876;8.962;2023-03-01T12:01:28;5.00;99.90
10472;DHT22;5283;48.876;8.962;2023-03-01T12:34:28;5.70;99.90
10472;DHT22;5283;48.876;8.962;2023-03-01T12:39:53;5.80;99.90
10472;DHT22;5283;48.876;8.962;2023-03-01T12:45:22;5.90;99.90
10472;DHT22;5283;48.876;8.962;2023-03-01T12:50:46;6.20;99.90
10472;DHT22;5283;48.876;8.962;2023-03-01T12:53:23;6.10;99.90
10472;DHT22;5283;48.876;8.962;2023-03-01T12:55:53;6.20;99.90
10472;DHT22;5283;48.876;8.962;2023-03-01T13:07:11;6.30;99.90
10472;DHT22;5283;48.876;8.962;2023-03-01T13:17:53;6.20;99.90
10472;DHT22;5283;48.876;8.962;2023-03-01T13:20:25;6.30;99.90
10472;DHT22;5283;48.876;8.962;2023-03-01T13:23:06;6.30;99.90
10472;DHT22;5283;48.876;8.962;2023-03-01T13:25:33;6.30;99.90
10472;DHT22;5283;48.876;8.962;2023-03-01T13:31:09;6.30;99.90
10472;DHT22;5283;48.876;8.962;2023-03-01T13:33:45;6.20;99.90
10472;DHT22;5283;48.876;8.962;2023-03-01T13:39:03;6.30;99.90
10472;DHT22;5283;48.876;8.962;2023-03-01T13:46:52;6.40;99.90
10472;DHT22;5283;48.876;8.962;2023-03-01T13:50:04;6.50;99.90
10472;DHT22;5283;48.876;8.962;2023-03-01T13:52:37;6.40;99.90
10472;DHT22;5283;48.876;8.962;2023-03-01T13:55:37;6.50;99.90
10472;DHT22;5283;48.876;8.962;2023-03-01T14:00:46;6.90;99.90
10472;DHT22;5283;48.876;8.962;2023-03-01T14:03:16;7.10;99.90
10472;DHT22;5283;48.876;8.962;2023-03-01T14:06:04;7.30;99.90
10472;DHT22;5283;48.876;8.962;2023-03-01T14:08:41;7.50;99.90
10472;DHT22;5283;48.876;8.962;2023-03-01T14:19:28;7.80;99.90
10472;DHT22;5283;48.876;8.962;2023-03-01T14:24:56;8.10;99.90
10472;DHT22;5283;48.876;8.962;2023-03-01T14:27:33;7.90;99.90
10472;DHT22;5283;48.876;8.962;2023-03-01T14:30:03;7.90;99.90
10472;DHT22;5283;48.876;8.962;2023-03-01T14:32:31;8.00;99.90
10472;DHT22;5283;48.876;8.962;2023-03-01T14:35:00;8.20;99.90
10472;DHT22;5283;48.876;8.962;2023-03-01T14:37:30;8.00;99.90
10472;DHT22;5283;48.876;8.962;2023-03-01T14:39:59;7.90;99.90
10472;DHT22;5283;48.876;8.962;2023-03-01T14:42:29;7.80;99.90
10472;DHT22;5283;48.876;8.962;2023-03-01T14:44:57;7.80;99.90
10472;DHT22;5283;48.876;8.962;2023-03-01T14:47:31;7.80;99.90
10472;DHT22;5283;48.876;8.962;2023-03-01T14:50:02;7.70;99.90
10472;DHT22;5283;48.876;8.962;2023-03-01T14:52:39;7.60;99.90
10472;DHT22;5283;48.876;8.962;2023-03-01T14:55:16;7.40;99.90
10472;DHT22;5283;48.876;8.962;2023-03-01T14:57:47;7.30;99.90
10472;DHT22;5283;48.876;8.962;2023-03-01T15:00:21;7.40;99.90
10472;DHT22;5283;48.876;8.962;2023-03-01T15:02:51;7.60;99.90
10472;DHT22;5283;48.876;8.962;2023-03-01T15:05:29;7.40;99.90
10472;DHT22;5283;48.876;8.962;2023-03-01T15:08:01;7.40;99.90
10472;DHT22;5283;48.876;8.962;2023-03-01T15:10:31;7.20;99.90
10472;DHT22;5283;48.876;8.962;2023-03-01T15:13:11;7.10;99.90
10472;DHT22;5283;48.876;8.962;2023-03-01T15:15:44;7.10;99.90
10472;DHT22;5283;48.876;8.962;2023-03-01T15:18:27;7.10;99.90
10472;DHT22;5283;48.876;8.962;2023-03-01T15:20:56;7.20;99.90
10472;DHT22;5283;48.876;8.962;2023-03-01T15:23:31;7.10;99.90
10472;DHT22;5283;48.876;8.962;2023-03-01T15:25:58;7.10;99.90
10472;DHT22;5283;48.876;8.962;2023-03-01T15:28:29;7.00;99.90
10472;DHT22;5283;48.876;8.962;2023-03-01T15:33:35;6.90;99.90
10472;DHT22;5283;48.876;8.962;2023-03-01T15:38:52;7.00;99.90
10472;DHT22;5283;48.876;8.962;2023-03-01T15:41:32;7.00;99.90
10472;DHT22;5283;48.876;8.962;2023-03-01T15:44:01;7.10;99.90
10472;DHT22;5283;48.876;8.962;2023-03-01T15:46:40;7.00;99.90
10472;DHT22;5283;48.876;8.962;2023-03-01T15:49:40;7.00;99.90
10472;DHT22;5283;48.876;8.962;2023-03-01T15:52:25;7.00;99.90
10472;DHT22;5283;48.876;8.962;2023-03-01T15:55:00;7.00;99.90
10472;DHT22;5283;48.876;8.962;2023-03-01T15:57:28;6.90;99.90
10472;DHT22;5283;48.876;8.962;2023-03-01T15:59:55;6.90;99.90
10472;DHT22;5283;48.876;8.962;2023-03-01T16:02:23;6.80;99.90
10472;DHT22;5283;48.876;8.962;2023-03-01T16:04:50;6.70;99.90
10472;DHT22;5283;48.876;8.962;2023-03-01T16:07:17;6.70;99.90
10472;DHT22;5283;48.876;8.962;2023-03-01T16:09:44;6.70;99.90
10472;DHT22;5283;48.876;8.962;2023-03-01T16:12:14;6.70;99.90
10472;DHT22;5283;48.876;8.962;2023-03-01T16:14:41;6.50;99.90
10472;DHT22;5283;48.876;8.962;2023-03-01T16:17:08;6.40;99.90
10472;DHT22;5283;48.876;8.962;2023-03-01T16:19:37;6.30;99.90
10472;DHT22;5283;48.876;8.962;2023-03-01T16:22:05;6.20;99.90
10472;DHT22;5283;48.876;8.962;2023-03-01T16:24:31;6.00;99.90
10472;DHT22;5283;48.876;8.962;2023-03-01T16:26:58;6.00;99.90
10472;DHT22;5283;48.876;8.962;2023-03-01T16:29:25;5.90;99.90
10472;DHT22;5283;48.876;8.962;2023-03-01T16:31:53;5.80;99.90
10472;DHT22;5283;48.876;8.962;2023-03-01T16:34:20;5.80;99.90
10472;DHT22;5283;48.876;8.962;2023-03-01T16:36:48;5.80;99.90
10472;DHT22;5283;48.876;8.962;2023-03-01T16:39:15;5.60;99.90
10472;DHT22;5283;48.876;8.962;2023-03-01T16:41:43;5.60;99.90
10472;DHT22;5283;48.876;8.962;2023-03-01T16:44:10;5.50;99.90
10472;DHT22;5283;48.876;8.962;2023-03-01T16:46:36;5.40;99.90
10472;DHT22;5283;48.876;8.962;2023-03-01T16:49:04;5.30;99.90
10472;DHT22;5283;48.876;8.962;2023-03-01T16:51:31;5.20;99.90
10472;DHT22;5283;48.876;8.962;2023-03-01T16:54:01;5.20;99.90
10472;DHT22;5283;48.876;8.962;2023-03-01T16:56:30;5.20;99.90
10472;DHT22;5283;48.876;8.962;2023-03-01T16:58:59;5.00;99.90
10472;DHT22;5283;48.876;8.962;2023-03-01T17:01:26;4.90;99.90
10472;DHT22;5283;48.876;8.962;2023-03-01T17:03:53;4.70;99.90
10472;DHT22;5283;48.876;8.962;2023-03-01T17:06:20;4.50;99.90
10472;DHT22;5283;48.876;8.962;2023-03-01T17:08:48;4.30;99.90
10472;DHT22;5283;48.876;8.962;2023-03-01T17:11:17;4.10;99.90
10472;DHT22;5283;48.876;8.962;2023-03-01T17:13:45;4.00;99.90
10472;DHT22;5283;48.876;8.962;2023-03-01T17:16:17;3.80;99.90
10472;DHT22;5283;48.876;8.962;2023-03-01T17:18:44;3.70;99.90
10472;DHT22;5283;48.876;8.962;2023-03-01T17:21:11;3.80;99.90
10472;DHT22;5283;48.876;8.962;2023-03-01T17:23:40;3.70;99.90
10472;DHT22;5283;48.876;8.962;2023-03-01T17:26:07;3.60;99.90
10472;DHT22;5283;48.876;8.962;2023-03-01T17:28:35;3.50;99.90
10472;DHT22;5283;48.876;8.962;2023-03-01T17:31:05;3.50;99.90
10472;DHT22;5283;48.876;8.962;2023-03-01T17:33:32;3.40;99.90
10472;DHT22;5283;48.876;8.962;2023-03-01T17:35:59;3.20;99.90
10472;DHT22;5283;48.876;8.962;2023-03-01T17:38:27;3.00;99.90
10472;DHT22;5283;48.876;8.962;2023-03-01T17:40:53;2.60;99.90
10472;DHT22;5283;48.876;8.962;2023-03-01T17:43:20;2.30;99.90
10472;DHT22;5283;48.876;8.962;2023-03-01T17:45:47;2.00;99.90
10472;DHT22;5283;48.876;8.962;2023-03-01T17:48:16;1.70;99.90
10472;DHT22;5283;48.876;8.962;2023-03-01T17:50:43;1.40;99.90
10472;DHT22;5283;48.876;8.962;2023-03-01T17:53:10;1.20;99.90
10472;DHT22;5283;48.876;8.962;2023-03-01T17:55:41;1.10;99.90
10472;DHT22;5283;48.876;8.962;2023-03-01T17:58:12;0.90;99.90
10472;DHT22;5283;48.876;8.962;2023-03-01T18:00:40;0.80;99.90
10472;DHT22;5283;48.876;8.962;2023-03-01T18:03:07;0.50;99.90
10472;DHT22;5283;48.876;8.962;2023-03-01T18:05:35;0.30;99.90
10472;DHT22;5283;48.876;8.962;2023-03-01T18:08:04;0.20;99.90
10472;DHT22;5283;48.876;8.962;2023-03-01T18:10:31;0.00;99.90
10472;DHT22;5283;48.876;8.962;2023-03-01T18:12:58;-0.10;99.90
10472;DHT22;5283;48.876;8.962;2023-03-01T18:15:25;-0.20;99.90